Snow/Ice From: 16-12-2017 16:00 Until: 17-12-2017 16:00 warning for: Snow/Ice Level: Yellow info button

Although rather usual in this region, locally or potentially dangerous phenomena are expected. (such as local winds, summer thunderstorms, rising streams or high waves) Be aware and pay attention to the latest weather updates, especially if you carry out activities exposed to weather or close to a stream or shoreline. 


Meteo18 Weather Cam more information Meteo18 Weather Cam


Thunder radar more information blitzortung!


warning for Snow/Ice more information rain snow radar


Visit our other weather sites:

Template documentation
and downloads

And another site



Weather Underground History page Text

Daily Summary for January 29, 2017 Units:  English    Metric   Both
« Previous Day
Next Day »
Daily Weekly Monthly Yearly Custom
  High: Low: Average:
Temperature: 48.9 °F 30.9 °F 39.6 °F
Dew Point: 43.9 °F 30.2 °F 37.4 °F
Humidity: 98 % 79 % 92 %
Wind Speed: 7 mph 0 mph 1.1 mph
Wind Gust: 11 mph - -
Wind:- - South
Pressure: 30.2 in 30.1 in -
Precipitation: 0.01 in    
Historical Graphs
 
 
Tabular Data for January 29, 2017
Time Temperature Dew Point Pressure Wind Wind Speed Wind Gust Humidity Rainfall Rate (Hourly)
00:02 31.3 °F 30.6 °F 30.2 in Calm   1 mph 97 % 0 in
00:07 31.1 °F 30.4 °F 30.2 in Calm   1 mph 97 % 0 in
00:12 30.9 °F 30.2 °F 30.2 in Calm   1 mph 97 % 0 in
00:17 30.9 °F 30.2 °F 30.2 in Calm     97 % 0 in
00:22 31.5 °F 30.7 °F 30.2 in Calm     97 % 0 in
00:32 31.6 °F 30.9 °F 30.2 in Calm     97 % 0 in
00:37 31.5 °F 30.7 °F 30.2 in Calm     97 % 0 in
00:42 31.3 °F 30.6 °F 30.2 in Calm     97 % 0 in
00:52 31.3 °F 30.6 °F 30.2 in Calm     97 % 0 in
00:57 31.6 °F 30.9 °F 30.2 in Calm     97 % 0 in
01:02 31.5 °F 30.7 °F 30.2 in Calm     97 % 0 in
01:12 31.6 °F 30.9 °F 30.2 in Calm     97 % 0 in
01:17 31.6 °F 30.9 °F 30.2 in Calm     97 % 0 in
01:22 32.2 °F 31.6 °F 30.2 in Calm     98 % 0 in
01:27 32.4 °F 31.8 °F 30.2 in Calm     98 % 0 in
01:32 32.7 °F 32.2 °F 30.2 in Calm     98 % 0 in
01:37 32.7 °F 32.2 °F 30.2 in Calm     98 % 0 in
01:42 32.7 °F 32.2 °F 30.2 in Calm     98 % 0 in
01:47 32.5 °F 32 °F 30.2 in Calm     98 % 0 in
01:52 32.5 °F 32 °F 30.2 in Calm     98 % 0 in
01:57 32.5 °F 32 °F 30.2 in Calm     98 % 0 in
02:02 32.5 °F 32 °F 30.2 in Calm     98 % 0 in
02:12 32.5 °F 32 °F 30.2 in Calm     98 % 0 in
02:17 32.5 °F 32 °F 30.2 in Calm     98 % 0 in
02:22 32.5 °F 32 °F 30.2 in Calm     98 % 0 in
02:27 32.5 °F 32 °F 30.2 in Calm     98 % 0 in
02:32 32.5 °F 31.8 °F 30.2 in Calm     97 % 0 in
02:37 32.5 °F 32 °F 30.2 in Calm     98 % 0 in
02:42 32.7 °F 32.2 °F 30.2 in Calm     98 % 0 in
02:47 32.7 °F 32.2 °F 30.2 in Calm     98 % 0 in
02:52 33.1 °F 32.5 °F 30.2 in Calm     98 % 0 in
02:57 32.7 °F 32.2 °F 30.2 in Calm     98 % 0 in
03:02 32.5 °F 32 °F 30.2 in Calm     98 % 0 in
03:12 32.4 °F 31.6 °F 30.2 in Calm     97 % 0 in
03:17 32.2 °F 31.5 °F 30.2 in Calm     97 % 0 in
03:22 32.2 °F 31.5 °F 30.2 in Calm     97 % 0 in
03:27 32.4 °F 31.6 °F 30.2 in Calm     97 % 0 in
03:32 32.7 °F 32.2 °F 30.2 in Calm     98 % 0 in
03:37 32.5 °F 32 °F 30.2 in Calm     98 % 0 in
03:47 32.7 °F 32.2 °F 30.2 in Calm     98 % 0 in
03:52 33.4 °F 32.9 °F 30.2 in Calm     98 % 0 in
03:57 33.8 °F 33.3 °F 30.2 in Calm   1 mph 98 % 0 in
04:07 33.8 °F 33.3 °F 30.2 in Calm   1 mph 98 % 0 in
04:12 34 °F 33.4 °F 30.2 in Calm   1 mph 98 % 0 in
04:17 34.2 °F 33.6 °F 30.2 in Calm   1 mph 98 % 0 in
04:22 34 °F 33.4 °F 30.2 in Calm   1 mph 98 % 0 in
04:32 34 °F 33.4 °F 30.2 in Calm   1 mph 98 % 0 in
04:37 34.5 °F 34 °F 30.2 in Calm   1 mph 98 % 0 in
04:42 34.7 °F 34.2 °F 30.2 in Calm     98 % 0 in
04:47 34.9 °F 34.3 °F 30.2 in Calm     98 % 0 in
04:52 34.9 °F 34.3 °F 30.2 in Calm     98 % 0 in
04:57 34.7 °F 34.2 °F 30.2 in Calm     98 % 0 in
05:02 34.9 °F 34.3 °F 30.2 in Calm     98 % 0 in
05:07 35.1 °F 34.5 °F 30.2 in Calm     98 % 0 in
05:12 35.4 °F 34.9 °F 30.2 in Calm     98 % 0 in
05:17 35.8 °F 35.2 °F 30.2 in Calm     98 % 0 in
05:22 35.8 °F 35.2 °F 30.2 in Calm     98 % 0.01 in
05:27 36 °F 35.4 °F 30.2 in Calm     98 % 0.01 in
05:32 36 °F 35.4 °F 30.2 in SSW 1 mph 1 mph 98 % 0.01 in
05:37 36 °F 35.4 °F 30.2 in Calm   1 mph 98 % 0.01 in
05:42 36 °F 35.4 °F 30.2 in Calm   1 mph 98 % 0.01 in
05:47 35.8 °F 35.2 °F 30.2 in Calm   1 mph 98 % 0.01 in
05:52 35.8 °F 35.2 °F 30.2 in Calm   1 mph 98 % 0.01 in
05:57 35.8 °F 35.2 °F 30.2 in Calm   1 mph 98 % 0.01 in
06:02 35.8 °F 35.2 °F 30.2 in Calm     98 % 0.01 in
06:12 35.8 °F 35.2 °F 30.2 in Calm     98 % 0.01 in
06:17 35.8 °F 35.2 °F 30.2 in Calm     98 % 0.01 in
06:22 36 °F 35.4 °F 30.2 in Calm   1 mph 98 % 0 in
06:32 36.1 °F 35.6 °F 30.2 in Calm   1 mph 98 % 0 in
06:37 36 °F 35.4 °F 30.2 in Calm     98 % 0 in
06:42 36 °F 35.4 °F 30.2 in Calm     98 % 0 in
06:47 36 °F 35.4 °F 30.2 in Calm     98 % 0 in
06:52 35.8 °F 35.2 °F 30.2 in Calm     98 % 0 in
07:02 35.8 °F 35.2 °F 30.2 in Calm     98 % 0 in
07:07 36 °F 35.4 °F 30.2 in Calm     98 % 0 in
07:17 36.1 °F 35.6 °F 30.2 in Calm     98 % 0 in
07:22 36.3 °F 35.8 °F 30.2 in Calm   1 mph 98 % 0 in
07:27 36.3 °F 35.8 °F 30.2 in Calm   1 mph 98 % 0 in
07:32 36.3 °F 35.8 °F 30.2 in Calm   2 mph 98 % 0 in
07:42 36.1 °F 35.6 °F 30.2 in Calm   1 mph 98 % 0 in
07:47 36.1 °F 35.6 °F 30.2 in Calm   1 mph 98 % 0 in
07:52 36.1 °F 35.6 °F 30.2 in Calm   1 mph 98 % 0 in
07:57 36.3 °F 35.8 °F 30.2 in Calm   1 mph 98 % 0 in
08:02 36.5 °F 36 °F 30.2 in Calm   1 mph 98 % 0 in
08:07 36.5 °F 36 °F 30.2 in Calm   1 mph 98 % 0 in
08:12 36.5 °F 36 °F 30.2 in Calm     98 % 0 in
08:17 36.5 °F 36 °F 30.2 in Calm     98 % 0 in
08:22 36.5 °F 36 °F 30.2 in Calm     98 % 0 in
08:32 36.3 °F 35.8 °F 30.2 in Calm     98 % 0 in
08:37 36.3 °F 35.8 °F 30.2 in Calm     98 % 0 in
08:42 36.5 °F 36 °F 30.2 in Calm     98 % 0 in
08:47 36.5 °F 36 °F 30.2 in Calm     98 % 0 in
08:52 36.5 °F 36 °F 30.2 in Calm     98 % 0 in
08:57 36.3 °F 35.8 °F 30.2 in Calm     98 % 0 in
09:02 36.7 °F 36.1 °F 30.2 in Calm     98 % 0 in
09:07 36.7 °F 36.1 °F 30.2 in Calm     98 % 0 in
09:12 36.9 °F 36.3 °F 30.2 in Calm     98 % 0 in
09:17 37 °F 36.5 °F 30.2 in Calm     98 % 0 in
09:22 37.4 °F 36.9 °F 30.2 in Calm     98 % 0 in
09:27 37.6 °F 37 °F 30.2 in Calm     98 % 0 in
09:32 37.2 °F 36.7 °F 30.2 in Calm     98 % 0 in
09:37 37.2 °F 36.7 °F 30.2 in Calm     98 % 0 in
09:42 37.6 °F 37 °F 30.2 in Calm     98 % 0 in
09:47 37.6 °F 37 °F 30.2 in Calm     98 % 0 in
09:52 37.8 °F 37.2 °F 30.2 in Calm     98 % 0 in
09:57 37.8 °F 37.2 °F 30.2 in SSE 1 mph   98 % 0 in
10:02 37.6 °F 37 °F 30.2 in SE 2 mph 2 mph 98 % 0 in
10:07 37.6 °F 37 °F 30.2 in Calm   2 mph 98 % 0 in
10:12 37.6 °F 37 °F 30.2 in SE 1 mph 3 mph 98 % 0 in
10:17 37.8 °F 37.2 °F 30.2 in SE 1 mph 3 mph 98 % 0 in
10:22 37.9 °F 37.4 °F 30.2 in SE 1 mph 3 mph 98 % 0 in
10:32 38.1 °F 37.6 °F 30.2 in South 1 mph 3 mph 98 % 0 in
10:37 38.3 °F 37.8 °F 30.2 in ESE 1 mph 3 mph 98 % 0 in
10:42 38.5 °F 37.9 °F 30.2 in Calm   3 mph 98 % 0 in
10:47 38.5 °F 37.9 °F 30.2 in SE 1 mph 3 mph 98 % 0 in
10:52 38.7 °F 38.1 °F 30.2 in Calm   2 mph 98 % 0 in
10:57 38.7 °F 38.1 °F 30.2 in Calm   2 mph 98 % 0 in
11:02 38.8 °F 38.3 °F 30.2 in SE 1 mph 2 mph 98 % 0 in
11:07 39 °F 38.5 °F 30.2 in SSE 2 mph 2 mph 98 % 0 in
11:12 39.2 °F 38.7 °F 30.2 in SE 1 mph 2 mph 98 % 0 in
11:17 39.4 °F 38.8 °F 30.2 in SE 2 mph 2 mph 98 % 0 in
11:22 39.4 °F 38.8 °F 30.2 in SE 1 mph 3 mph 98 % 0 in
11:32 39.9 °F 39.4 °F 30.2 in SSE 1 mph 4 mph 98 % 0 in
11:37 40.3 °F 39.7 °F 30.2 in Calm   4 mph 98 % 0 in
11:42 40.6 °F 40.1 °F 30.2 in SE 2 mph 4 mph 98 % 0 in
11:47 41 °F 40.5 °F 30.2 in SSE 3 mph 4 mph 98 % 0 in
11:52 41.4 °F 40.8 °F 30.2 in South 4 mph 4 mph 98 % 0 in
11:57 41.5 °F 41 °F 30.2 in South 1 mph 4 mph 98 % 0 in
12:02 41.9 °F 41.4 °F 30.2 in SE 1 mph 5 mph 98 % 0 in
12:07 42.1 °F 41.5 °F 30.2 in SE 1 mph 5 mph 98 % 0 in
12:12 42.4 °F 41.7 °F 30.2 in Calm   5 mph 97 % 0 in
12:17 42.4 °F 41.7 °F 30.2 in SSE 1 mph 4 mph 97 % 0 in
12:22 42.6 °F 41.9 °F 30.2 in SE 2 mph 4 mph 97 % 0 in
12:32 43 °F 41.9 °F 30.2 in SW 4 mph 4 mph 96 % 0 in
12:37 43.2 °F 41.9 °F 30.2 in SSW 4 mph 6 mph 95 % 0 in
12:42 43.5 °F 42.3 °F 30.2 in SSW 4 mph 6 mph 95 % 0 in
12:47 43.5 °F 41.7 °F 30.2 in SW 4 mph 9 mph 93 % 0 in
12:57 44.4 °F 42.3 °F 30.2 in SW 6 mph 9 mph 92 % 0 in
13:02 45.3 °F 43.2 °F 30.2 in South 6 mph 9 mph 92 % 0 in
13:12 46 °F 43.3 °F 30.2 in SSW 6 mph 9 mph 90 % 0 in
13:17 46.4 °F 43.3 °F 30.2 in SW 6 mph 11 mph 89 % 0 in
13:22 46.4 °F 43 °F 30.2 in SW 3 mph 11 mph 88 % 0 in
13:27 46.4 °F 43 °F 30.2 in SSW 3 mph 11 mph 88 % 0 in
13:32 46.6 °F 43.5 °F 30.2 in SSW 5 mph 10 mph 89 % 0 in
13:37 46.8 °F 42.8 °F 30.2 in WSW 7 mph 8 mph 86 % 0 in
13:42 46.9 °F 43.5 °F 30.2 in South 2 mph 8 mph 88 % 0 in
13:47 46.9 °F 43 °F 30.2 in SW 6 mph 10 mph 86 % 0 in
13:52 47.1 °F 43.5 °F 30.2 in South 4 mph 10 mph 87 % 0 in
13:57 47.3 °F 43 °F 30.2 in SW 7 mph 10 mph 85 % 0 in
14:02 47.1 °F 43.2 °F 30.2 in SW 6 mph 10 mph 86 % 0 in
14:12 47.8 °F 43.9 °F 30.2 in South 3 mph 10 mph 86 % 0 in
14:17 47.5 °F 42.3 °F 30.2 in SSW 6 mph 9 mph 82 % 0 in
14:22 47.5 °F 42.8 °F 30.2 in South 2 mph 9 mph 84 % 0 in
14:27 47.5 °F 43.2 °F 30.2 in SSE 3 mph 9 mph 85 % 0 in
14:32 47.7 °F 43 °F 30.2 in South 4 mph 9 mph 84 % 0 in
14:37 47.7 °F 43.3 °F 30.2 in South 2 mph 6 mph 85 % 0 in
14:42 47.7 °F 42.8 °F 30.2 in Calm   6 mph 83 % 0 in
14:47 47.8 °F 43.2 °F 30.2 in SSE 4 mph 6 mph 84 % 0 in
14:52 48 °F 42.1 °F 30.1 in SW 3 mph 8 mph 80 % 0 in
14:57 48.4 °F 43.2 °F 30.1 in South 2 mph 8 mph 82 % 0 in
15:02 48.6 °F 43 °F 30.1 in SSE 5 mph 9 mph 81 % 0 in
15:12 48.6 °F 43.3 °F 30.1 in SSE 1 mph 9 mph 82 % 0 in
15:17 48.6 °F 42.3 °F 30.1 in SSE 6 mph 8 mph 79 % 0 in
15:22 48.6 °F 42.3 °F 30.1 in SW 6 mph 8 mph 79 % 0 in
15:27 48.7 °F 42.4 °F 30.1 in SSW 4 mph 9 mph 79 % 0 in
15:32 48.9 °F 43 °F 30.1 in South 3 mph 9 mph 80 % 0 in
15:37 48.7 °F 42.8 °F 30.1 in South 4 mph 10 mph 80 % 0 in
15:42 48.7 °F 43.2 °F 30.1 in West 2 mph 10 mph 81 % 0 in
15:47 48.4 °F 42.4 °F 30.1 in SSE 3 mph 10 mph 80 % 0 in
15:52 48.2 °F 42.3 °F 30.1 in SSE 2 mph 10 mph 80 % 0 in
15:57 48 °F 42.4 °F 30.1 in South 2 mph 9 mph 81 % 0 in
16:02 48 °F 42.4 °F 30.1 in South 1 mph 9 mph 81 % 0 in
16:12 47.8 °F 41.9 °F 30.1 in South 2 mph 6 mph 80 % 0 in
16:17 48 °F 42.4 °F 30.1 in SSW 2 mph 6 mph 81 % 0 in
16:22 48 °F 42.4 °F 30.1 in SE 3 mph 6 mph 81 % 0 in
16:27 48 °F 42.4 °F 30.1 in SSE 2 mph 6 mph 81 % 0 in
16:32 48.2 °F 42.3 °F 30.1 in South 1 mph 6 mph 80 % 0 in
16:37 48.6 °F 42.6 °F 30.1 in South 3 mph 6 mph 80 % 0 in
16:42 48.6 °F 42.6 °F 30.1 in SSE 2 mph 5 mph 80 % 0 in
16:47 48.4 °F 42.4 °F 30.1 in South 3 mph 5 mph 80 % 0 in
16:57 47.7 °F 42.1 °F 30.1 in SW 3 mph 6 mph 81 % 0 in
17:02 47.3 °F 41.7 °F 30.1 in South 3 mph 6 mph 81 % 0 in
17:12 46.8 °F 41.5 °F 30.1 in South 1 mph 6 mph 82 % 0 in
17:17 46.4 °F 41.2 °F 30.1 in South 1 mph 5 mph 82 % 0 in
17:22 46.2 °F 41 °F 30.1 in South 3 mph 5 mph 82 % 0 in
17:27 46 °F 40.8 °F 30.1 in SSE 2 mph 5 mph 82 % 0 in
17:32 46 °F 40.8 °F 30.1 in ESE 2 mph 5 mph 82 % 0 in
17:37 45.9 °F 40.6 °F 30.1 in SSE 2 mph 4 mph 82 % 0 in
17:42 45.7 °F 40.8 °F 30.1 in Calm   4 mph 83 % 0 in
17:47 45.3 °F 40.5 °F 30.1 in SE 1 mph 4 mph 83 % 0 in
17:52 45.1 °F 40.3 °F 30.1 in ESE 1 mph 4 mph 83 % 0 in
17:57 44.8 °F 39.9 °F 30.1 in Calm   4 mph 83 % 0 in
18:02 44.4 °F 39.9 °F 30.1 in Calm   3 mph 84 % 0 in
18:12 43.9 °F 39.4 °F 30.1 in Calm   2 mph 84 % 0 in
18:17 43.3 °F 39.2 °F 30.1 in Calm   2 mph 85 % 0 in
18:22 43 °F 38.8 °F 30.1 in SSE 1 mph 2 mph 85 % 0 in
18:32 41.9 °F 37.9 °F 30.1 in SSW 1 mph 1 mph 86 % 0 in
18:42 41.4 °F 37.8 °F 30.1 in Calm   2 mph 87 % 0 in
18:52 41.2 °F 37.9 °F 30.1 in SSW 1 mph 3 mph 88 % 0 in
18:57 41.2 °F 37.9 °F 30.1 in Calm   3 mph 88 % 0 in
19:02 41.4 °F 38.1 °F 30.1 in Calm   2 mph 88 % 0 in
19:12 41.2 °F 37.9 °F 30.1 in Calm   2 mph 88 % 0 in
19:17 41.2 °F 37.9 °F 30.1 in Calm   1 mph 88 % 0 in
19:22 41 °F 37.8 °F 30.1 in Calm   1 mph 88 % 0 in
19:27 40.8 °F 37.8 °F 30.1 in SW 1 mph   89 % 0 in
19:32 40.8 °F 37.8 °F 30.1 in South 1 mph   89 % 0 in
19:42 40.8 °F 38.1 °F 30.1 in SSW 1 mph 1 mph 90 % 0 in
19:47 41.2 °F 38.5 °F 30.1 in SSW 1 mph 2 mph 90 % 0 in
19:52 41.2 °F 38.1 °F 30.1 in South 1 mph 2 mph 89 % 0 in
19:57 41 °F 37.9 °F 30.1 in Calm   2 mph 89 % 0 in
20:02 41 °F 38.3 °F 30.1 in SSW 1 mph 2 mph 90 % 0 in
20:12 41.2 °F 38.1 °F 30.1 in SW 1 mph 3 mph 89 % 0 in
20:17 41.4 °F 38.3 °F 30.1 in SW 3 mph 4 mph 89 % 0 in
20:22 41.5 °F 38.5 °F 30.1 in SW 2 mph 5 mph 89 % 0 in
20:27 41.5 °F 38.3 °F 30.1 in South 3 mph 5 mph 88 % 0 in
20:32 41.4 °F 38.1 °F 30.1 in SSW 2 mph 5 mph 88 % 0 in
20:37 41.4 °F 38.1 °F 30.1 in SSW 3 mph 5 mph 88 % 0 in
20:42 41.2 °F 37.9 °F 30.1 in SSW 2 mph 4 mph 88 % 0 in
20:47 41.2 °F 37.9 °F 30.1 in SSW 1 mph 4 mph 88 % 0 in
20:52 41.4 °F 38.1 °F 30.1 in SSW 1 mph 3 mph 88 % 0 in
20:57 41.4 °F 38.1 °F 30.1 in Calm   4 mph 88 % 0 in
21:02 41.4 °F 38.1 °F 30.1 in Calm   4 mph 88 % 0 in
21:07 41.5 °F 37.9 °F 30.1 in SSW 1 mph 3 mph 87 % 0 in
21:12 41.7 °F 38.1 °F 30.1 in SSW 1 mph 3 mph 87 % 0 in
21:17 41.7 °F 38.1 °F 30.1 in Calm   2 mph 87 % 0 in
21:22 41.7 °F 38.1 °F 30.1 in SW 1 mph 2 mph 87 % 0 in
21:32 41.5 °F 37.9 °F 30.1 in SSW 1 mph 2 mph 87 % 0 in
21:37 41.5 °F 37.9 °F 30.1 in Calm   2 mph 87 % 0 in
21:42 41.4 °F 37.8 °F 30.1 in South 1 mph 2 mph 87 % 0 in
21:47 41.4 °F 37.8 °F 30.1 in Calm   2 mph 87 % 0 in
21:52 41.4 °F 37.8 °F 30.1 in SE 1 mph 2 mph 87 % 0 in
21:57 41.2 °F 37.6 °F 30.1 in SE 1 mph 2 mph 87 % 0 in
22:02 41.2 °F 37.9 °F 30.1 in Calm   2 mph 88 % 0 in
22:12 40.8 °F 37.6 °F 30.1 in SSW 1 mph 2 mph 88 % 0 in
22:17 40.5 °F 37.2 °F 30.1 in SSW 2 mph 2 mph 88 % 0 in
22:22 40.5 °F 37.4 °F 30.1 in South 2 mph 2 mph 89 % 0 in
22:27 40.5 °F 37.2 °F 30.1 in SSW 1 mph 2 mph 88 % 0 in
22:32 40.6 °F 37.6 °F 30.1 in SSW 2 mph 2 mph 89 % 0 in
22:37 40.6 °F 37.4 °F 30.1 in SSW 1 mph 3 mph 88 % 0 in
22:42 40.8 °F 37.6 °F 30.1 in SE 2 mph 4 mph 88 % 0 in
22:47 40.8 °F 37.6 °F 30.1 in SSW 2 mph 4 mph 88 % 0 in
22:52 40.8 °F 37.6 °F 30.1 in Calm   3 mph 88 % 0 in
22:57 40.8 °F 37.6 °F 30.1 in South 1 mph 3 mph 88 % 0 in
23:02 41.2 °F 37.6 °F 30.1 in SSW 1 mph 3 mph 87 % 0 in
23:07 41 °F 37.4 °F 30.1 in SSW 1 mph 2 mph 87 % 0 in
23:12 40.8 °F 37.6 °F 30.1 in Calm   2 mph 88 % 0 in
23:17 40.8 °F 37.6 °F 30.1 in South 1 mph 2 mph 88 % 0 in
23:22 40.8 °F 37.6 °F 30.1 in Calm   2 mph 88 % 0 in
23:27 40.8 °F 37.6 °F 30.1 in SSW 1 mph 3 mph 88 % 0 in
23:32 40.5 °F 37.2 °F 30.1 in SSW 1 mph 3 mph 88 % 0 in
23:37 40.3 °F 37.2 °F 30.1 in SSE 2 mph 3 mph 89 % 0 in
23:42 40.5 °F 37.4 °F 30.1 in Calm   3 mph 89 % 0 in
23:47 40.5 °F 37.2 °F 30.1 in SSE 1 mph 2 mph 88 % 0 in
23:52 40.5 °F 37.2 °F 30.1 in SE 1 mph 3 mph 88 % 0 in
23:57 40.5 °F 37.2 °F 30.1 in Calm   3 mph 88 % 0 in
Meteo18
Compliments of Weather Underground - 4 mb

Script developed by  Jim McMurry - jmcmurry@mwt.net Adapted for the template by  Wim van der Kuil - Leuven-Template.eu

You find our weather info also at:

European Weather Network

Weather Underground

Equipment we use:

Weather-station
Davis Vue

Weather-program
Meteohub

Weather-server
Raspberry PI 2 B+

Provider
1 and 1

Davis Vue

Meteohub

Raspberry PI 2 B+

1 and 1